sensor_id;sensor_type;location;lat;lon;timestamp;P1;durP1;ratioP1;P2;durP2;ratioP2
52934;SDS011;38802;50.198;19.796;2022-10-18T00:01:06;8.60;;;6.40;;
52934;SDS011;38802;50.198;19.796;2022-10-18T00:03:40;11.30;;;5.90;;
52934;SDS011;38802;50.198;19.796;2022-10-18T00:06:09;7.80;;;6.20;;
52934;SDS011;38802;50.198;19.796;2022-10-18T00:08:37;8.30;;;6.50;;
52934;SDS011;38802;50.198;19.796;2022-10-18T00:11:06;7.60;;;5.90;;
52934;SDS011;38802;50.198;19.796;2022-10-18T00:13:34;6.00;;;5.30;;
52934;SDS011;38802;50.198;19.796;2022-10-18T00:16:03;9.00;;;6.30;;
52934;SDS011;38802;50.198;19.796;2022-10-18T00:18:36;12.20;;;6.30;;
52934;SDS011;38802;50.198;19.796;2022-10-18T00:21:06;9.10;;;5.70;;
52934;SDS011;38802;50.198;19.796;2022-10-18T00:23:37;6.60;;;5.70;;
52934;SDS011;38802;50.198;19.796;2022-10-18T00:26:13;6.80;;;5.30;;
52934;SDS011;38802;50.198;19.796;2022-10-18T00:28:43;7.40;;;6.10;;
52934;SDS011;38802;50.198;19.796;2022-10-18T00:31:13;5.30;;;4.80;;
52934;SDS011;38802;50.198;19.796;2022-10-18T00:33:49;6.20;;;4.80;;
52934;SDS011;38802;50.198;19.796;2022-10-18T00:36:18;6.50;;;5.10;;
52934;SDS011;38802;50.198;19.796;2022-10-18T00:38:47;6.80;;;5.20;;
52934;SDS011;38802;50.198;19.796;2022-10-18T00:41:26;5.50;;;5.00;;
52934;SDS011;38802;50.198;19.796;2022-10-18T00:44:06;5.60;;;5.10;;
52934;SDS011;38802;50.198;19.796;2022-10-18T00:46:35;6.20;;;4.70;;
52934;SDS011;38802;50.198;19.796;2022-10-18T00:49:09;5.90;;;4.50;;
52934;SDS011;38802;50.198;19.796;2022-10-18T00:52:04;6.70;;;5.00;;
52934;SDS011;38802;50.198;19.796;2022-10-18T00:54:37;6.50;;;4.90;;
52934;SDS011;38802;50.198;19.796;2022-10-18T00:57:07;5.00;;;4.60;;
52934;SDS011;38802;50.198;19.796;2022-10-18T00:59:37;6.90;;;4.70;;
52934;SDS011;38802;50.198;19.796;2022-10-18T01:02:05;5.80;;;5.20;;
52934;SDS011;38802;50.198;19.796;2022-10-18T01:04:34;5.10;;;4.60;;
52934;SDS011;38802;50.198;19.796;2022-10-18T01:07:07;4.60;;;4.20;;
52934;SDS011;38802;50.198;19.796;2022-10-18T01:15:30;5.30;;;4.80;;
52934;SDS011;38802;50.198;19.796;2022-10-18T01:21:13;7.30;;;5.60;;
52934;SDS011;38802;50.198;19.796;2022-10-18T01:32:28;6.70;;;5.20;;
52934;SDS011;38802;50.198;19.796;2022-10-18T01:35:04;7.30;;;6.60;;
52934;SDS011;38802;50.198;19.796;2022-10-18T01:37:36;9.10;;;7.00;;
52934;SDS011;38802;50.198;19.796;2022-10-18T01:40:06;10.70;;;7.20;;
52934;SDS011;38802;50.198;19.796;2022-10-18T01:42:36;11.30;;;8.20;;
52934;SDS011;38802;50.198;19.796;2022-10-18T01:45:04;12.30;;;7.90;;
52934;SDS011;38802;50.198;19.796;2022-10-18T01:47:35;10.40;;;8.50;;
52934;SDS011;38802;50.198;19.796;2022-10-18T01:50:04;8.90;;;8.00;;
52934;SDS011;38802;50.198;19.796;2022-10-18T01:52:33;9.50;;;8.20;;
52934;SDS011;38802;50.198;19.796;2022-10-18T01:55:01;18.70;;;7.80;;
52934;SDS011;38802;50.198;19.796;2022-10-18T01:57:35;10.10;;;8.90;;
52934;SDS011;38802;50.198;19.796;2022-10-18T02:00:14;10.20;;;8.40;;
52934;SDS011;38802;50.198;19.796;2022-10-18T02:06:15;10.00;;;8.50;;
52934;SDS011;38802;50.198;19.796;2022-10-18T02:09:00;9.90;;;8.90;;
52934;SDS011;38802;50.198;19.796;2022-10-18T02:11:36;11.20;;;9.10;;
52934;SDS011;38802;50.198;19.796;2022-10-18T02:14:07;12.20;;;9.20;;
52934;SDS011;38802;50.198;19.796;2022-10-18T02:16:40;11.80;;;10.60;;
52934;SDS011;38802;50.198;19.796;2022-10-18T02:21:51;10.00;;;8.20;;
52934;SDS011;38802;50.198;19.796;2022-10-18T02:24:22;12.50;;;8.30;;
52934;SDS011;38802;50.198;19.796;2022-10-18T02:26:54;9.40;;;8.40;;
52934;SDS011;38802;50.198;19.796;2022-10-18T02:29:23;13.00;;;8.60;;
52934;SDS011;38802;50.198;19.796;2022-10-18T02:31:54;10.50;;;7.40;;
52934;SDS011;38802;50.198;19.796;2022-10-18T02:34:32;9.40;;;7.50;;
52934;SDS011;38802;50.198;19.796;2022-10-18T02:37:04;9.60;;;8.00;;
52934;SDS011;38802;50.198;19.796;2022-10-18T02:39:33;11.70;;;7.80;;
52934;SDS011;38802;50.198;19.796;2022-10-18T02:42:04;9.70;;;8.40;;
52934;SDS011;38802;50.198;19.796;2022-10-18T02:44:33;11.10;;;7.40;;
52934;SDS011;38802;50.198;19.796;2022-10-18T02:47:03;10.70;;;7.80;;
52934;SDS011;38802;50.198;19.796;2022-10-18T02:49:32;8.90;;;7.90;;
52934;SDS011;38802;50.198;19.796;2022-10-18T02:52:00;7.10;;;6.60;;
52934;SDS011;38802;50.198;19.796;2022-10-18T02:54:28;9.40;;;7.30;;
52934;SDS011;38802;50.198;19.796;2022-10-18T02:56:56;8.60;;;6.90;;
52934;SDS011;38802;50.198;19.796;2022-10-18T02:59:24;8.20;;;6.50;;
52934;SDS011;38802;50.198;19.796;2022-10-18T03:01:53;14.00;;;7.70;;
52934;SDS011;38802;50.198;19.796;2022-10-18T03:04:21;11.40;;;7.40;;
52934;SDS011;38802;50.198;19.796;2022-10-18T03:06:49;6.40;;;5.80;;
52934;SDS011;38802;50.198;19.796;2022-10-18T03:09:17;8.20;;;7.50;;
52934;SDS011;38802;50.198;19.796;2022-10-18T03:11:45;7.80;;;6.50;;
52934;SDS011;38802;50.198;19.796;2022-10-18T03:14:13;7.90;;;7.10;;
52934;SDS011;38802;50.198;19.796;2022-10-18T03:16:42;10.80;;;6.60;;
52934;SDS011;38802;50.198;19.796;2022-10-18T03:19:10;7.00;;;6.40;;
52934;SDS011;38802;50.198;19.796;2022-10-18T03:21:38;10.60;;;7.20;;
52934;SDS011;38802;50.198;19.796;2022-10-18T03:24:06;6.60;;;6.00;;
52934;SDS011;38802;50.198;19.796;2022-10-18T03:26:34;9.90;;;7.10;;
52934;SDS011;38802;50.198;19.796;2022-10-18T03:29:02;8.90;;;6.60;;
52934;SDS011;38802;50.198;19.796;2022-10-18T03:31:33;7.10;;;6.30;;
52934;SDS011;38802;50.198;19.796;2022-10-18T03:34:01;7.00;;;6.30;;
52934;SDS011;38802;50.198;19.796;2022-10-18T03:36:30;8.80;;;6.20;;
52934;SDS011;38802;50.198;19.796;2022-10-18T03:38:58;11.60;;;6.70;;
52934;SDS011;38802;50.198;19.796;2022-10-18T03:41:26;8.20;;;6.40;;
52934;SDS011;38802;50.198;19.796;2022-10-18T03:43:54;6.60;;;6.00;;
52934;SDS011;38802;50.198;19.796;2022-10-18T03:46:22;7.00;;;6.40;;
52934;SDS011;38802;50.198;19.796;2022-10-18T03:48:50;9.70;;;6.30;;
52934;SDS011;38802;50.198;19.796;2022-10-18T03:51:18;15.50;;;5.90;;
52934;SDS011;38802;50.198;19.796;2022-10-18T03:53:46;6.90;;;5.70;;
52934;SDS011;38802;50.198;19.796;2022-10-18T03:56:14;9.60;;;5.60;;
52934;SDS011;38802;50.198;19.796;2022-10-18T03:58:42;7.10;;;5.90;;
52934;SDS011;38802;50.198;19.796;2022-10-18T04:01:10;6.90;;;5.90;;
52934;SDS011;38802;50.198;19.796;2022-10-18T04:03:39;7.30;;;6.40;;
52934;SDS011;38802;50.198;19.796;2022-10-18T04:06:07;7.50;;;5.40;;
52934;SDS011;38802;50.198;19.796;2022-10-18T04:08:36;6.60;;;5.90;;
52934;SDS011;38802;50.198;19.796;2022-10-18T04:11:07;6.40;;;5.20;;
52934;SDS011;38802;50.198;19.796;2022-10-18T04:13:37;6.90;;;6.30;;
52934;SDS011;38802;50.198;19.796;2022-10-18T04:16:05;8.80;;;6.50;;
52934;SDS011;38802;50.198;19.796;2022-10-18T04:18:33;11.20;;;6.40;;
52934;SDS011;38802;50.198;19.796;2022-10-18T04:21:02;7.60;;;6.90;;
52934;SDS011;38802;50.198;19.796;2022-10-18T04:23:30;10.10;;;6.40;;
52934;SDS011;38802;50.198;19.796;2022-10-18T04:26:05;7.30;;;6.60;;
52934;SDS011;38802;50.198;19.796;2022-10-18T04:28:33;10.60;;;6.70;;
52934;SDS011;38802;50.198;19.796;2022-10-18T04:31:02;7.40;;;6.40;;
52934;SDS011;38802;50.198;19.796;2022-10-18T04:33:30;7.40;;;6.10;;
52934;SDS011;38802;50.198;19.796;2022-10-18T04:35:58;11.40;;;6.40;;
52934;SDS011;38802;50.198;19.796;2022-10-18T04:38:26;6.80;;;6.20;;
52934;SDS011;38802;50.198;19.796;2022-10-18T04:40:54;6.30;;;5.80;;
52934;SDS011;38802;50.198;19.796;2022-10-18T04:43:24;8.10;;;6.50;;
52934;SDS011;38802;50.198;19.796;2022-10-18T04:45:52;7.50;;;6.20;;
52934;SDS011;38802;50.198;19.796;2022-10-18T04:48:20;9.40;;;6.20;;
52934;SDS011;38802;50.198;19.796;2022-10-18T04:50:49;8.00;;;7.30;;
52934;SDS011;38802;50.198;19.796;2022-10-18T04:53:18;7.80;;;6.40;;
52934;SDS011;38802;50.198;19.796;2022-10-18T04:55:46;8.10;;;7.30;;
52934;SDS011;38802;50.198;19.796;2022-10-18T04:58:16;7.20;;;6.20;;
52934;SDS011;38802;50.198;19.796;2022-10-18T05:00:45;10.40;;;6.30;;
52934;SDS011;38802;50.198;19.796;2022-10-18T05:03:14;9.50;;;7.50;;
52934;SDS011;38802;50.198;19.796;2022-10-18T05:05:43;10.00;;;7.90;;
52934;SDS011;38802;50.198;19.796;2022-10-18T05:08:30;9.90;;;8.70;;
52934;SDS011;38802;50.198;19.796;2022-10-18T05:11:02;12.70;;;10.30;;
52934;SDS011;38802;50.198;19.796;2022-10-18T05:13:31;16.90;;;12.10;;
52934;SDS011;38802;50.198;19.796;2022-10-18T05:15:59;16.50;;;12.40;;
52934;SDS011;38802;50.198;19.796;2022-10-18T05:18:29;13.30;;;10.70;;
52934;SDS011;38802;50.198;19.796;2022-10-18T05:20:57;17.30;;;9.80;;
52934;SDS011;38802;50.198;19.796;2022-10-18T05:23:25;14.60;;;9.30;;
52934;SDS011;38802;50.198;19.796;2022-10-18T05:25:53;14.80;;;9.10;;
52934;SDS011;38802;50.198;19.796;2022-10-18T05:28:21;10.70;;;8.70;;
52934;SDS011;38802;50.198;19.796;2022-10-18T05:31:08;16.60;;;8.10;;
52934;SDS011;38802;50.198;19.796;2022-10-18T05:33:38;10.50;;;8.80;;
52934;SDS011;38802;50.198;19.796;2022-10-18T05:36:07;15.10;;;8.10;;
52934;SDS011;38802;50.198;19.796;2022-10-18T05:38:39;11.00;;;8.10;;
52934;SDS011;38802;50.198;19.796;2022-10-18T05:41:12;11.20;;;8.90;;
52934;SDS011;38802;50.198;19.796;2022-10-18T05:43:40;14.90;;;8.90;;
52934;SDS011;38802;50.198;19.796;2022-10-18T05:46:08;15.40;;;9.10;;
52934;SDS011;38802;50.198;19.796;2022-10-18T05:48:42;13.80;;;8.60;;
52934;SDS011;38802;50.198;19.796;2022-10-18T05:51:16;14.50;;;9.80;;
52934;SDS011;38802;50.198;19.796;2022-10-18T05:53:45;41.80;;;20.60;;
52934;SDS011;38802;50.198;19.796;2022-10-18T05:56:13;48.40;;;23.60;;
52934;SDS011;38802;50.198;19.796;2022-10-18T05:58:41;33.70;;;17.30;;
52934;SDS011;38802;50.198;19.796;2022-10-18T06:01:09;24.50;;;14.00;;
52934;SDS011;38802;50.198;19.796;2022-10-18T06:03:37;52.60;;;21.30;;
52934;SDS011;38802;50.198;19.796;2022-10-18T06:06:06;28.30;;;13.00;;
52934;SDS011;38802;50.198;19.796;2022-10-18T06:08:37;13.40;;;9.80;;
52934;SDS011;38802;50.198;19.796;2022-10-18T06:11:11;24.10;;;11.80;;
52934;SDS011;38802;50.198;19.796;2022-10-18T06:13:42;53.10;;;22.10;;
52934;SDS011;38802;50.198;19.796;2022-10-18T06:16:13;55.00;;;23.20;;
52934;SDS011;38802;50.198;19.796;2022-10-18T06:18:46;30.00;;;15.80;;
52934;SDS011;38802;50.198;19.796;2022-10-18T06:21:16;17.00;;;10.80;;
52934;SDS011;38802;50.198;19.796;2022-10-18T06:23:53;14.40;;;8.40;;
52934;SDS011;38802;50.198;19.796;2022-10-18T06:26:24;10.10;;;8.00;;
52934;SDS011;38802;50.198;19.796;2022-10-18T06:28:53;9.40;;;7.00;;
52934;SDS011;38802;50.198;19.796;2022-10-18T06:31:22;8.20;;;7.20;;
52934;SDS011;38802;50.198;19.796;2022-10-18T06:33:50;12.80;;;7.50;;
52934;SDS011;38802;50.198;19.796;2022-10-18T06:36:19;16.70;;;6.90;;
52934;SDS011;38802;50.198;19.796;2022-10-18T06:38:51;8.00;;;7.20;;
52934;SDS011;38802;50.198;19.796;2022-10-18T06:41:20;9.10;;;6.50;;
52934;SDS011;38802;50.198;19.796;2022-10-18T06:43:49;9.30;;;6.40;;
52934;SDS011;38802;50.198;19.796;2022-10-18T06:46:18;6.60;;;5.90;;
52934;SDS011;38802;50.198;19.796;2022-10-18T06:48:46;8.90;;;6.40;;
52934;SDS011;38802;50.198;19.796;2022-10-18T06:51:14;11.40;;;7.30;;
52934;SDS011;38802;50.198;19.796;2022-10-18T06:53:42;8.30;;;6.30;;
52934;SDS011;38802;50.198;19.796;2022-10-18T06:56:31;8.80;;;6.40;;
52934;SDS011;38802;50.198;19.796;2022-10-18T06:58:59;9.50;;;6.30;;
52934;SDS011;38802;50.198;19.796;2022-10-18T07:01:28;11.30;;;5.80;;
52934;SDS011;38802;50.198;19.796;2022-10-18T07:03:56;8.40;;;6.50;;
52934;SDS011;38802;50.198;19.796;2022-10-18T07:06:24;8.50;;;6.60;;
52934;SDS011;38802;50.198;19.796;2022-10-18T07:08:52;10.10;;;6.20;;
52934;SDS011;38802;50.198;19.796;2022-10-18T07:11:22;8.00;;;5.60;;
52934;SDS011;38802;50.198;19.796;2022-10-18T07:13:52;7.50;;;5.30;;
52934;SDS011;38802;50.198;19.796;2022-10-18T07:16:23;6.80;;;5.60;;
52934;SDS011;38802;50.198;19.796;2022-10-18T07:18:51;6.50;;;5.50;;
52934;SDS011;38802;50.198;19.796;2022-10-18T07:21:20;6.80;;;5.10;;
52934;SDS011;38802;50.198;19.796;2022-10-18T07:23:50;9.00;;;6.00;;
52934;SDS011;38802;50.198;19.796;2022-10-18T07:26:22;8.10;;;5.20;;
52934;SDS011;38802;50.198;19.796;2022-10-18T07:28:56;7.20;;;5.50;;
52934;SDS011;38802;50.198;19.796;2022-10-18T07:31:28;7.80;;;5.20;;
52934;SDS011;38802;50.198;19.796;2022-10-18T07:33:56;5.50;;;4.40;;
52934;SDS011;38802;50.198;19.796;2022-10-18T07:36:25;5.60;;;4.60;;
52934;SDS011;38802;50.198;19.796;2022-10-18T07:38:53;5.60;;;4.10;;
52934;SDS011;38802;50.198;19.796;2022-10-18T07:41:22;5.40;;;4.90;;
52934;SDS011;38802;50.198;19.796;2022-10-18T07:43:51;5.10;;;4.60;;
52934;SDS011;38802;50.198;19.796;2022-10-18T07:46:20;5.10;;;4.60;;
52934;SDS011;38802;50.198;19.796;2022-10-18T07:48:51;7.10;;;4.90;;
52934;SDS011;38802;50.198;19.796;2022-10-18T07:51:19;6.00;;;4.10;;
52934;SDS011;38802;50.198;19.796;2022-10-18T07:53:48;8.50;;;5.10;;
52934;SDS011;38802;50.198;19.796;2022-10-18T07:56:18;5.90;;;4.40;;
52934;SDS011;38802;50.198;19.796;2022-10-18T07:58:49;26.20;;;5.50;;
52934;SDS011;38802;50.198;19.796;2022-10-18T08:01:19;5.60;;;4.00;;
52934;SDS011;38802;50.198;19.796;2022-10-18T08:03:49;9.30;;;4.10;;
52934;SDS011;38802;50.198;19.796;2022-10-18T08:06:18;5.90;;;4.70;;
52934;SDS011;38802;50.198;19.796;2022-10-18T08:08:48;6.30;;;4.40;;
52934;SDS011;38802;50.198;19.796;2022-10-18T08:11:18;9.50;;;4.70;;
52934;SDS011;38802;50.198;19.796;2022-10-18T08:13:49;6.00;;;4.30;;
52934;SDS011;38802;50.198;19.796;2022-10-18T08:16:18;9.40;;;4.30;;
52934;SDS011;38802;50.198;19.796;2022-10-18T08:18:49;7.70;;;4.80;;
52934;SDS011;38802;50.198;19.796;2022-10-18T08:21:18;9.70;;;3.90;;
52934;SDS011;38802;50.198;19.796;2022-10-18T08:23:47;5.60;;;5.00;;
52934;SDS011;38802;50.198;19.796;2022-10-18T08:26:17;8.70;;;4.00;;
52934;SDS011;38802;50.198;19.796;2022-10-18T08:28:47;5.20;;;4.30;;
52934;SDS011;38802;50.198;19.796;2022-10-18T08:31:30;5.40;;;4.80;;
52934;SDS011;38802;50.198;19.796;2022-10-18T08:33:59;5.00;;;4.10;;
52934;SDS011;38802;50.198;19.796;2022-10-18T08:36:27;5.90;;;4.00;;
52934;SDS011;38802;50.198;19.796;2022-10-18T08:38:55;4.00;;;3.50;;
52934;SDS011;38802;50.198;19.796;2022-10-18T08:44:39;5.80;;;5.30;;
52934;SDS011;38802;50.198;19.796;2022-10-18T08:49:40;4.60;;;4.10;;
52934;SDS011;38802;50.198;19.796;2022-10-18T08:52:19;6.20;;;4.30;;
52934;SDS011;38802;50.198;19.796;2022-10-18T08:55:05;6.20;;;4.60;;
52934;SDS011;38802;50.198;19.796;2022-10-18T08:57:36;5.90;;;4.50;;
52934;SDS011;38802;50.198;19.796;2022-10-18T09:00:14;8.30;;;4.00;;
52934;SDS011;38802;50.198;19.796;2022-10-18T09:22:15;7.60;;;4.40;;
52934;SDS011;38802;50.198;19.796;2022-10-18T09:24:55;4.80;;;4.10;;
52934;SDS011;38802;50.198;19.796;2022-10-18T09:27:40;4.30;;;3.90;;
52934;SDS011;38802;50.198;19.796;2022-10-18T09:30:28;3.60;;;3.30;;
52934;SDS011;38802;50.198;19.796;2022-10-18T09:33:30;3.70;;;3.40;;
52934;SDS011;38802;50.198;19.796;2022-10-18T09:36:09;5.80;;;3.70;;
52934;SDS011;38802;50.198;19.796;2022-10-18T09:38:44;5.60;;;4.40;;
52934;SDS011;38802;50.198;19.796;2022-10-18T09:41:23;6.90;;;4.20;;
52934;SDS011;38802;50.198;19.796;2022-10-18T09:43:56;5.00;;;3.80;;
52934;SDS011;38802;50.198;19.796;2022-10-18T09:46:32;4.50;;;4.10;;
52934;SDS011;38802;50.198;19.796;2022-10-18T09:49:28;4.00;;;3.60;;
52934;SDS011;38802;50.198;19.796;2022-10-18T09:52:06;4.70;;;4.10;;
52934;SDS011;38802;50.198;19.796;2022-10-18T09:54:59;5.70;;;3.30;;
52934;SDS011;38802;50.198;19.796;2022-10-18T09:57:39;12.10;;;3.70;;
52934;SDS011;38802;50.198;19.796;2022-10-18T10:00:16;5.80;;;4.50;;
52934;SDS011;38802;50.198;19.796;2022-10-18T10:02:49;8.90;;;4.00;;
52934;SDS011;38802;50.198;19.796;2022-10-18T10:05:17;6.00;;;4.30;;
52934;SDS011;38802;50.198;19.796;2022-10-18T10:07:46;5.90;;;4.00;;
52934;SDS011;38802;50.198;19.796;2022-10-18T10:10:18;4.80;;;4.20;;
52934;SDS011;38802;50.198;19.796;2022-10-18T10:13:01;7.20;;;4.00;;
52934;SDS011;38802;50.198;19.796;2022-10-18T10:18:19;9.30;;;4.50;;
52934;SDS011;38802;50.198;19.796;2022-10-18T10:20:53;9.20;;;4.10;;
52934;SDS011;38802;50.198;19.796;2022-10-18T10:25:53;4.00;;;3.70;;
52934;SDS011;38802;50.198;19.796;2022-10-18T10:28:28;7.40;;;4.40;;
52934;SDS011;38802;50.198;19.796;2022-10-18T10:31:16;6.10;;;4.10;;
52934;SDS011;38802;50.198;19.796;2022-10-18T10:33:51;6.30;;;4.10;;
52934;SDS011;38802;50.198;19.796;2022-10-18T10:36:25;4.60;;;3.90;;
52934;SDS011;38802;50.198;19.796;2022-10-18T10:39:16;4.60;;;4.10;;
52934;SDS011;38802;50.198;19.796;2022-10-18T10:42:04;5.50;;;4.90;;
52934;SDS011;38802;50.198;19.796;2022-10-18T10:44:38;5.70;;;4.00;;
52934;SDS011;38802;50.198;19.796;2022-10-18T10:47:30;6.00;;;4.90;;
52934;SDS011;38802;50.198;19.796;2022-10-18T10:50:07;6.00;;;4.10;;
52934;SDS011;38802;50.198;19.796;2022-10-18T10:52:38;6.00;;;4.30;;
52934;SDS011;38802;50.198;19.796;2022-10-18T10:55:15;4.80;;;4.00;;
52934;SDS011;38802;50.198;19.796;2022-10-18T10:58:02;6.40;;;4.00;;
52934;SDS011;38802;50.198;19.796;2022-10-18T11:00:41;9.20;;;5.00;;
52934;SDS011;38802;50.198;19.796;2022-10-18T11:03:15;6.00;;;4.30;;
52934;SDS011;38802;50.198;19.796;2022-10-18T11:06:00;4.70;;;4.00;;
52934;SDS011;38802;50.198;19.796;2022-10-18T11:08:35;7.40;;;4.10;;
52934;SDS011;38802;50.198;19.796;2022-10-18T11:11:16;3.60;;;3.10;;
52934;SDS011;38802;50.198;19.796;2022-10-18T11:13:56;3.90;;;3.50;;
52934;SDS011;38802;50.198;19.796;2022-10-18T11:22:48;5.50;;;3.70;;
52934;SDS011;38802;50.198;19.796;2022-10-18T11:25:17;9.00;;;3.60;;
52934;SDS011;38802;50.198;19.796;2022-10-18T11:27:54;6.70;;;4.10;;
52934;SDS011;38802;50.198;19.796;2022-10-18T11:33:44;3.50;;;3.20;;
52934;SDS011;38802;50.198;19.796;2022-10-18T11:36:44;4.90;;;3.80;;
52934;SDS011;38802;50.198;19.796;2022-10-18T11:53:20;4.80;;;3.80;;
52934;SDS011;38802;50.198;19.796;2022-10-18T11:56:18;4.90;;;3.80;;
52934;SDS011;38802;50.198;19.796;2022-10-18T11:59:01;4.80;;;3.70;;
52934;SDS011;38802;50.198;19.796;2022-10-18T12:01:36;6.50;;;3.60;;
52934;SDS011;38802;50.198;19.796;2022-10-18T12:04:19;8.90;;;4.30;;
52934;SDS011;38802;50.198;19.796;2022-10-18T12:06:51;9.60;;;3.80;;
52934;SDS011;38802;50.198;19.796;2022-10-18T12:09:31;5.30;;;4.20;;
52934;SDS011;38802;50.198;19.796;2022-10-18T12:15:22;5.10;;;3.90;;
52934;SDS011;38802;50.198;19.796;2022-10-18T12:18:07;6.50;;;3.40;;
52934;SDS011;38802;50.198;19.796;2022-10-18T12:20:47;4.20;;;3.50;;
52934;SDS011;38802;50.198;19.796;2022-10-18T12:25:52;4.20;;;3.80;;
52934;SDS011;38802;50.198;19.796;2022-10-18T12:33:47;4.70;;;3.40;;
52934;SDS011;38802;50.198;19.796;2022-10-18T12:39:17;4.00;;;3.50;;
52934;SDS011;38802;50.198;19.796;2022-10-18T12:42:19;5.70;;;3.30;;
52934;SDS011;38802;50.198;19.796;2022-10-18T12:44:59;6.20;;;3.70;;
52934;SDS011;38802;50.198;19.796;2022-10-18T12:47:32;6.60;;;4.00;;
52934;SDS011;38802;50.198;19.796;2022-10-18T12:50:03;5.80;;;3.80;;
52934;SDS011;38802;50.198;19.796;2022-10-18T12:52:33;4.60;;;3.60;;
52934;SDS011;38802;50.198;19.796;2022-10-18T13:00:54;11.10;;;4.70;;
52934;SDS011;38802;50.198;19.796;2022-10-18T13:13:30;4.00;;;3.60;;
52934;SDS011;38802;50.198;19.796;2022-10-18T13:30:26;6.50;;;3.90;;
52934;SDS011;38802;50.198;19.796;2022-10-18T13:41:23;5.30;;;4.30;;
52934;SDS011;38802;50.198;19.796;2022-10-18T13:44:28;5.80;;;3.50;;
52934;SDS011;38802;50.198;19.796;2022-10-18T14:11:54;6.80;;;4.00;;
52934;SDS011;38802;50.198;19.796;2022-10-18T14:17:21;4.90;;;3.30;;
52934;SDS011;38802;50.198;19.796;2022-10-18T14:19:59;5.70;;;3.90;;
52934;SDS011;38802;50.198;19.796;2022-10-18T14:25:37;12.00;;;5.70;;
52934;SDS011;38802;50.198;19.796;2022-10-18T14:28:10;9.80;;;4.80;;
52934;SDS011;38802;50.198;19.796;2022-10-18T14:33:45;8.70;;;5.70;;
52934;SDS011;38802;50.198;19.796;2022-10-18T14:36:26;9.30;;;5.10;;
52934;SDS011;38802;50.198;19.796;2022-10-18T14:38:57;10.70;;;5.10;;
52934;SDS011;38802;50.198;19.796;2022-10-18T14:41:28;7.70;;;4.60;;
52934;SDS011;38802;50.198;19.796;2022-10-18T14:46:48;9.50;;;5.20;;
52934;SDS011;38802;50.198;19.796;2022-10-18T14:49:18;9.20;;;4.70;;
52934;SDS011;38802;50.198;19.796;2022-10-18T14:51:49;9.80;;;4.80;;
52934;SDS011;38802;50.198;19.796;2022-10-18T14:54:23;7.40;;;5.00;;
52934;SDS011;38802;50.198;19.796;2022-10-18T14:57:02;8.50;;;5.10;;
52934;SDS011;38802;50.198;19.796;2022-10-18T14:59:32;8.80;;;5.30;;
52934;SDS011;38802;50.198;19.796;2022-10-18T15:02:13;14.50;;;4.90;;
52934;SDS011;38802;50.198;19.796;2022-10-18T15:04:43;9.90;;;5.40;;
52934;SDS011;38802;50.198;19.796;2022-10-18T15:07:13;7.90;;;5.30;;
52934;SDS011;38802;50.198;19.796;2022-10-18T15:09:44;8.80;;;6.00;;
52934;SDS011;38802;50.198;19.796;2022-10-18T15:12:14;9.90;;;5.50;;
52934;SDS011;38802;50.198;19.796;2022-10-18T15:14:44;13.30;;;7.80;;
52934;SDS011;38802;50.198;19.796;2022-10-18T15:17:14;8.10;;;6.60;;
52934;SDS011;38802;50.198;19.796;2022-10-18T15:19:55;10.70;;;6.40;;
52934;SDS011;38802;50.198;19.796;2022-10-18T15:22:33;9.70;;;6.30;;
52934;SDS011;38802;50.198;19.796;2022-10-18T15:27:44;54.20;;;26.40;;
52934;SDS011;38802;50.198;19.796;2022-10-18T15:33:21;22.40;;;15.10;;
52934;SDS011;38802;50.198;19.796;2022-10-18T15:35:52;17.50;;;9.00;;
52934;SDS011;38802;50.198;19.796;2022-10-18T15:38:24;12.00;;;8.60;;
52934;SDS011;38802;50.198;19.796;2022-10-18T15:40:54;10.00;;;7.70;;
52934;SDS011;38802;50.198;19.796;2022-10-18T15:45:56;11.80;;;8.40;;
52934;SDS011;38802;50.198;19.796;2022-10-18T15:48:34;26.30;;;13.70;;
52934;SDS011;38802;50.198;19.796;2022-10-18T15:51:08;29.10;;;21.00;;
52934;SDS011;38802;50.198;19.796;2022-10-18T15:53:59;22.00;;;15.00;;
52934;SDS011;38802;50.198;19.796;2022-10-18T15:58:55;12.10;;;8.80;;
52934;SDS011;38802;50.198;19.796;2022-10-18T16:03:57;10.10;;;7.60;;
52934;SDS011;38802;50.198;19.796;2022-10-18T16:06:26;15.00;;;7.80;;
52934;SDS011;38802;50.198;19.796;2022-10-18T16:08:54;13.20;;;8.30;;
52934;SDS011;38802;50.198;19.796;2022-10-18T16:11:23;14.10;;;8.60;;
52934;SDS011;38802;50.198;19.796;2022-10-18T16:13:52;12.10;;;8.70;;
52934;SDS011;38802;50.198;19.796;2022-10-18T16:16:27;25.30;;;12.60;;
52934;SDS011;38802;50.198;19.796;2022-10-18T16:18:56;36.80;;;20.30;;
52934;SDS011;38802;50.198;19.796;2022-10-18T16:21:26;36.10;;;19.40;;
52934;SDS011;38802;50.198;19.796;2022-10-18T16:23:54;24.80;;;16.00;;
52934;SDS011;38802;50.198;19.796;2022-10-18T16:26:24;18.10;;;12.20;;
52934;SDS011;38802;50.198;19.796;2022-10-18T16:28:54;17.60;;;12.10;;
52934;SDS011;38802;50.198;19.796;2022-10-18T16:31:25;23.70;;;13.90;;
52934;SDS011;38802;50.198;19.796;2022-10-18T16:33:58;20.70;;;13.60;;
52934;SDS011;38802;50.198;19.796;2022-10-18T16:36:28;21.20;;;13.40;;
52934;SDS011;38802;50.198;19.796;2022-10-18T16:39:01;16.20;;;10.20;;
52934;SDS011;38802;50.198;19.796;2022-10-18T16:41:32;15.60;;;9.80;;
52934;SDS011;38802;50.198;19.796;2022-10-18T16:44:00;11.90;;;9.20;;
52934;SDS011;38802;50.198;19.796;2022-10-18T16:46:30;9.60;;;8.70;;
52934;SDS011;38802;50.198;19.796;2022-10-18T16:48:59;15.10;;;9.40;;
52934;SDS011;38802;50.198;19.796;2022-10-18T16:51:28;16.80;;;9.20;;
52934;SDS011;38802;50.198;19.796;2022-10-18T16:53:56;16.70;;;10.20;;
52934;SDS011;38802;50.198;19.796;2022-10-18T16:56:26;16.50;;;10.30;;
52934;SDS011;38802;50.198;19.796;2022-10-18T16:58:59;18.40;;;10.50;;
52934;SDS011;38802;50.198;19.796;2022-10-18T17:01:28;13.90;;;9.30;;
52934;SDS011;38802;50.198;19.796;2022-10-18T17:03:56;15.60;;;9.50;;
52934;SDS011;38802;50.198;19.796;2022-10-18T17:06:27;17.90;;;9.80;;
52934;SDS011;38802;50.198;19.796;2022-10-18T17:08:57;18.70;;;11.60;;
52934;SDS011;38802;50.198;19.796;2022-10-18T17:11:26;17.70;;;11.90;;
52934;SDS011;38802;50.198;19.796;2022-10-18T17:13:55;16.80;;;11.20;;
52934;SDS011;38802;50.198;19.796;2022-10-18T17:16:27;15.00;;;11.40;;
52934;SDS011;38802;50.198;19.796;2022-10-18T17:19:01;17.40;;;12.20;;
52934;SDS011;38802;50.198;19.796;2022-10-18T17:21:31;17.50;;;10.50;;
52934;SDS011;38802;50.198;19.796;2022-10-18T17:24:03;16.60;;;10.40;;
52934;SDS011;38802;50.198;19.796;2022-10-18T17:26:33;16.30;;;9.00;;
52934;SDS011;38802;50.198;19.796;2022-10-18T17:29:05;19.40;;;9.80;;
52934;SDS011;38802;50.198;19.796;2022-10-18T17:31:35;11.00;;;8.80;;
52934;SDS011;38802;50.198;19.796;2022-10-18T17:34:03;12.10;;;9.20;;
52934;SDS011;38802;50.198;19.796;2022-10-18T17:36:31;13.50;;;9.00;;
52934;SDS011;38802;50.198;19.796;2022-10-18T17:39:00;15.20;;;9.10;;
52934;SDS011;38802;50.198;19.796;2022-10-18T17:41:29;14.30;;;9.10;;
52934;SDS011;38802;50.198;19.796;2022-10-18T17:43:57;13.70;;;10.10;;
52934;SDS011;38802;50.198;19.796;2022-10-18T17:46:25;13.50;;;9.90;;
52934;SDS011;38802;50.198;19.796;2022-10-18T17:48:53;14.30;;;9.80;;
52934;SDS011;38802;50.198;19.796;2022-10-18T17:51:21;11.20;;;9.40;;
52934;SDS011;38802;50.198;19.796;2022-10-18T17:53:50;24.60;;;10.10;;
52934;SDS011;38802;50.198;19.796;2022-10-18T17:56:18;10.70;;;9.60;;
52934;SDS011;38802;50.198;19.796;2022-10-18T17:58:49;12.00;;;8.40;;